Time;durP1;ratioP1;P1;durP2;ratioP2;P2;SDS_P1;SDS_P2;PMS_P1;PMS_P2;Temp;Humidity;BMP_temperature;BMP_pressure;BME280_temperature;BME280_humidity;BME280_pressure;Samples;Min_cycle;Max_cycle;Signal;HPM_P1;HPM_P2
2022/06/03 00:01:28;;;;;;;7.92;5.95;;;;;;;12.95;67.70;99216.63;1821991;78;28345;-60
2022/06/03 00:04:12;;;;;;;;;;;;;;;12.81;68.02;99212.01;1823077;78;25577;-61
2022/06/03 00:07:07;;;;;;;8.53;6.55;;;;;;;12.71;68.91;99212.28;1803830;79;25471;-62
2022/06/03 00:09:53;;;;;;;8.20;6.17;;;;;;;12.61;68.68;99206.50;1803372;79;25752;-62
2022/06/03 00:12:31;;;;;;;8.85;6.58;;;;;;;12.55;68.90;99208.54;1803486;79;25457;-61
2022/06/03 00:15:11;;;;;;;10.05;7.03;;;;;;;12.48;68.98;99207.63;1802592;79;27267;-62
2022/06/03 00:17:58;;;;;;;8.55;6.37;;;;;;;12.52;68.81;99202.32;1804318;78;25640;-57
2022/06/03 00:21:07;;;;;;;7.83;6.20;;;;;;;12.58;68.69;99202.41;1819081;78;25631;-58
2022/06/03 00:23:51;;;;;;;7.97;5.53;;;;;;;12.64;68.81;99209.41;1790157;78;25690;-60
2022/06/03 00:26:32;;;;;;;9.15;6.53;;;;;;;12.67;68.82;99204.66;1820855;78;25667;-57
2022/06/03 00:29:25;;;;;;;8.25;6.05;;;;;;;12.67;68.82;99200.53;1822357;78;27973;-59
2022/06/03 00:32:16;;;;;;;9.23;6.42;;;;;;;12.64;68.77;99194.28;1820096;78;25820;-58
2022/06/03 00:34:46;;;;;;;;;;;;;;;12.60;68.79;99197.42;1825043;78;25417;-56
2022/06/03 00:37:37;;;;;;;7.67;6.20;;;;;;;12.54;69.00;99193.18;1820991;78;25919;-56
2022/06/03 00:40:40;;;;;;;;;;;;;;;12.51;68.97;99191.05;1825725;78;25574;-56
2022/06/03 00:43:45;;;;;;;9.30;5.72;;;;;;;12.48;69.06;99187.00;1823312;78;27422;-57
2022/06/03 00:46:42;;;;;;;10.80;6.45;;;;;;;12.37;69.30;99184.25;1822092;78;25414;-57
2022/06/03 00:49:47;;;;;;;10.20;6.70;;;;;;;12.23;69.77;99181.59;1822917;78;25596;-56
2022/06/03 00:52:51;;;;;;;8.70;7.30;;;;;;;12.16;69.75;99186.95;1823302;78;26471;-57
2022/06/03 00:55:34;;;;;;;8.20;6.62;;;;;;;12.15;69.77;99187.27;1822182;78;25638;-58
2022/06/03 00:58:20;;;;;;;9.75;7.17;;;;;;;12.17;69.63;99181.70;1822032;78;29506;-57
2022/06/03 01:01:08;;;;;;;10.15;6.58;;;;;;;12.16;69.74;99184.76;1822020;78;25623;-57
2022/06/03 01:03:57;;;;;;;9.85;7.28;;;;;;;12.14;69.92;99187.81;1822992;78;25639;-59
2022/06/03 01:06:37;;;;;;;10.43;6.55;;;;;;;12.26;69.79;99187.84;1828877;78;25717;-61
2022/06/03 01:09:21;;;;;;;8.45;6.65;;;;;;;12.34;69.67;99193.94;1831196;78;25703;-61
2022/06/03 01:12:11;;;;;;;9.88;6.97;;;;;;;12.30;69.81;99188.83;1830111;78;28167;-61
2022/06/03 01:15:09;;;;;;;8.70;6.83;;;;;;;12.26;69.86;99187.25;1830536;78;25940;-61
2022/06/03 01:17:47;;;;;;;12.05;6.75;;;;;;;12.21;69.89;99187.39;1830454;78;25766;-61
2022/06/03 01:20:25;;;;;;;10.60;6.22;;;;;;;12.16;69.98;99193.00;1830899;78;26940;-62
2022/06/03 01:23:15;;;;;;;7.72;6.33;;;;;;;12.12;70.09;99192.00;1830800;78;25700;-61
2022/06/03 01:26:05;;;;;;;9.45;6.75;;;;;;;12.08;70.16;99187.69;1831162;78;27451;-61
2022/06/03 01:28:43;;;;;;;9.23;6.77;;;;;;;12.02;69.99;99188.89;1762689;81;26152;-61
2022/06/03 01:32:00;;;;;;;8.25;6.90;;;;;;;11.98;69.87;99185.16;1762391;81;25707;-62
2022/06/03 01:34:44;;;;;;;9.43;6.53;;;;;;;11.97;69.98;99182.95;1762654;81;25808;-61
2022/06/03 01:37:28;;;;;;;9.28;6.22;;;;;;;12.00;70.04;99185.66;1762536;81;25711;-61
2022/06/03 01:40:37;;;;;;;9.18;6.40;;;;;;;12.01;70.05;99187.28;1691216;84;27597;-62
2022/06/03 01:43:36;;;;;;;9.33;6.50;;;;;;;12.00;70.06;99189.20;1725656;83;25725;-61
2022/06/03 01:46:29;;;;;;;7.92;5.70;;;;;;;11.91;70.18;99186.39;1726247;83;25692;-61
2022/06/03 01:49:35;;;;;;;13.80;8.13;;;;;;;11.84;70.45;99190.68;1726621;83;25861;-62
2022/06/03 01:52:29;;;;;;;10.15;7.85;;;;;;;11.82;70.32;99192.36;1674550;85;25580;-58
2022/06/03 01:55:18;;;;;;;10.70;7.97;;;;;;;11.76;70.61;99197.16;1674785;85;27445;-57
2022/06/03 01:58:25;;;;;;;10.08;7.42;;;;;;;11.71;70.96;99202.75;1674769;85;26060;-57
2022/06/03 02:01:11;;;;;;;12.30;8.03;;;;;;;11.66;71.00;99205.05;1645809;87;25533;-57
2022/06/03 02:04:10;;;;;;;13.32;8.18;;;;;;;11.59;70.83;99199.17;1646159;87;25793;-57
2022/06/03 02:07:08;;;;;;;12.23;7.45;;;;;;;11.49;71.04;99192.53;1660027;85;25735;-58
2022/06/03 02:10:01;;;;;;;10.58;8.13;;;;;;;11.46;71.33;99182.98;1596272;89;27571;-56
2022/06/03 02:13:16;;;;;;;16.57;8.05;;;;;;;11.50;71.46;99196.34;1632604;87;25688;-56
2022/06/03 02:16:07;;;;;;;11.45;7.50;;;;;;;11.56;71.25;99190.17;1633542;87;25760;-57
2022/06/03 02:19:04;;;;;;;11.25;7.42;;;;;;;11.50;71.20;99186.73;1633535;87;26722;-57
2022/06/03 02:21:52;;;;;;;11.50;7.70;;;;;;;11.44;71.51;99189.88;1633827;87;25495;-56
2022/06/03 02:24:36;;;;;;;11.93;7.90;;;;;;;11.39;71.66;99192.17;1633497;87;27597;-57
2022/06/03 02:27:30;;;;;;;10.78;8.23;;;;;;;11.32;71.98;99191.22;1633036;87;25763;-56
2022/06/03 02:30:39;;;;;;;11.50;8.18;;;;;;;11.22;72.08;99193.59;1614827;88;25659;-56
2022/06/03 02:33:29;;;;;;;12.25;8.20;;;;;;;11.12;72.42;99193.26;1605553;88;25817;-58
2022/06/03 02:36:38;;;;;;;15.60;9.15;;;;;;;10.99;72.91;99200.34;1590472;90;25720;-60
2022/06/03 02:39:21;;;;;;;12.88;9.30;;;;;;;10.97;72.92;99205.89;1589563;90;27469;-60
2022/06/03 02:42:26;;;;;;;12.88;9.53;;;;;;;10.98;73.00;99204.21;1589288;90;25687;-60
2022/06/03 02:45:21;;;;;;;12.82;9.03;;;;;;;10.98;73.12;99202.02;1627010;85;25557;-59
2022/06/03 02:48:32;;;;;;;11.73;8.25;;;;;;;10.98;73.21;99195.16;1745349;81;25807;-60
2022/06/03 02:51:16;;;;;;;13.83;8.18;;;;;;;11.04;73.23;99196.70;1754471;81;25456;-61
2022/06/03 02:54:27;;;;;;;9.65;7.42;;;;;;;11.12;73.38;99198.75;1754271;81;27477;-59
2022/06/03 02:57:05;;;;;;;;;;;;;;;11.13;73.12;99195.42;1756935;81;25467;-59
2022/06/03 02:59:40;;;;;;;12.20;7.40;;;;;;;11.12;73.28;99193.81;1754912;81;25510;-56
2022/06/03 03:02:30;;;;;;;10.55;7.40;;;;;;;11.08;73.23;99190.84;1754326;81;25668;-60
2022/06/03 03:05:45;;;;;;;8.58;6.42;;;;;;;11.10;72.97;99191.37;1759309;80;25625;-60
2022/06/03 03:08:37;;;;;;;9.15;6.80;;;;;;;11.20;72.34;99197.77;1782847;80;27947;-59
2022/06/03 03:11:44;;;;;;;9.78;6.75;;;;;;;11.25;72.03;99198.48;1783807;80;25857;-61
2022/06/03 03:14:24;;;;;;;8.98;6.12;;;;;;;11.25;71.82;99192.17;1784192;80;25396;-56
2022/06/03 03:17:23;;;;;;;10.32;6.12;;;;;;;11.25;71.70;99199.85;1782632;80;25965;-59
2022/06/03 03:20:26;;;;;;;7.75;6.08;;;;;;;11.25;71.62;99203.14;1784137;80;25542;-56
2022/06/03 03:23:07;;;;;;;9.55;6.00;;;;;;;11.31;71.45;99199.76;1781613;80;27452;-57
2022/06/03 03:25:58;;;;;;;9.75;6.15;;;;;;;11.41;71.31;99203.66;1783727;80;25914;-58
2022/06/03 03:29:08;;;;;;;9.40;6.40;;;;;;;11.53;70.91;99205.33;1783967;80;25403;-57
2022/06/03 03:32:04;;;;;;;9.40;6.05;;;;;;;11.70;70.78;99210.75;1784179;80;25716;-57
2022/06/03 03:35:16;;;;;;;6.60;4.35;;;;;;;11.87;70.03;99215.60;1783873;80;25624;-57
2022/06/03 03:38:20;;;;;;;10.00;6.10;;;;;;;12.00;69.39;99211.17;1783723;80;28148;-57
2022/06/03 03:41:07;;;;;;;10.93;6.08;;;;;;;12.08;69.23;99208.84;1783428;80;25576;-58
2022/06/03 03:44:10;;;;;;;8.45;4.55;;;;;;;12.14;68.96;99210.34;1750189;80;25605;-58
2022/06/03 03:47:00;;;;;;;6.53;5.33;;;;;;;12.17;68.47;99209.17;1783489;80;25784;-57
2022/06/03 03:49:57;;;;;;;8.65;5.80;;;;;;;12.28;68.53;99213.05;1783932;80;25474;-58
2022/06/03 03:52:49;;;;;;;8.20;5.45;;;;;;;12.40;68.33;99220.17;1783824;80;27321;-59
2022/06/03 03:55:35;;;;;;;8.15;5.55;;;;;;;12.56;67.96;99219.80;1782607;80;26018;-57
2022/06/03 03:58:54;;;;;;;8.83;6.28;;;;;;;12.69;67.51;99218.67;1754436;81;25497;-61
2022/06/03 04:01:56;;;;;;;7.08;5.25;;;;;;;12.74;67.05;99222.65;1759416;81;25785;-61
2022/06/03 04:04:53;;;;;;;10.10;6.25;;;;;;;12.84;66.92;99223.75;1752335;81;25610;-61
2022/06/03 04:07:40;;;;;;;11.78;5.92;;;;;;;12.98;66.72;99217.38;1759578;81;27528;-61
2022/06/03 04:10:30;;;;;;;8.80;5.72;;;;;;;13.17;66.49;99224.01;1665819;86;25747;-62
2022/06/03 04:13:52;;;;;;;9.35;5.60;;;;;;;13.29;65.24;99224.78;1670139;85;25502;-61
2022/06/03 04:16:26;;;;;;;8.83;5.53;;;;;;;13.35;65.41;99230.39;1670338;85;25946;-61
2022/06/03 04:19:00;;;;;;;10.28;6.03;;;;;;;13.66;65.36;99228.17;1668805;85;25495;-58
2022/06/03 04:21:43;;;;;;;11.33;6.30;;;;;;;13.84;64.95;99230.16;1670071;85;27544;-60
2022/06/03 04:24:40;;;;;;;8.23;5.40;;;;;;;13.95;64.17;99229.25;1669416;85;25511;-62
2022/06/03 04:27:28;;;;;;;8.53;5.05;;;;;;;14.10;64.14;99235.67;1669231;85;25721;-62
2022/06/03 04:30:46;;;;;;;8.55;5.30;;;;;;;14.20;63.60;99234.56;1670054;85;25762;-61
2022/06/03 04:33:29;;;;;;;8.93;5.35;;;;;;;14.27;63.10;99240.39;1670426;85;25800;-60
2022/06/03 04:36:51;;;;;;;8.50;5.50;;;;;;;14.30;63.24;99236.98;1693464;84;27391;-57
2022/06/03 04:39:42;;;;;;;7.10;5.28;;;;;;;14.32;62.93;99249.62;1699942;84;25697;-59
2022/06/03 04:43:01;;;;;;;8.85;5.53;;;;;;;14.35;63.17;99240.70;1700418;84;25474;-56
2022/06/03 04:45:47;;;;;;;9.63;6.20;;;;;;;14.44;63.20;99245.65;1699942;84;25743;-61
2022/06/03 04:48:40;;;;;;;9.23;5.25;;;;;;;14.53;62.97;99251.16;1764709;80;25576;-58
2022/06/03 04:51:17;;;;;;;9.45;6.08;;;;;;;14.56;62.55;99249.13;1731307;82;26811;-57
2022/06/03 04:54:28;;;;;;;10.85;6.12;;;;;;;14.68;63.52;99249.83;1726162;82;25452;-58
2022/06/03 04:57:31;;;;;;;;;;;;;;;14.68;63.52;99249.83;1658613;86;25734;-56
2022/06/03 05:00:29;;;;;;;7.60;5.70;;;;;;;14.88;62.80;99253.09;1656247;86;25770;-56
2022/06/03 05:03:13;;;;;;;7.20;5.67;;;;;;;15.02;62.47;99250.12;1656511;86;25468;-58
2022/06/03 05:06:20;;;;;;;8.55;5.80;;;;;;;15.15;61.87;99242.78;1658130;86;27466;-56
2022/06/03 05:09:08;;;;;;;8.48;5.87;;;;;;;15.15;61.87;99242.78;1667370;86;25671;-61
2022/06/03 05:12:11;;;;;;;6.60;5.35;;;;;;;15.32;61.69;99244.67;1649396;87;25828;-60
2022/06/03 05:15:21;;;;;;;7.65;5.25;;;;;;;15.45;60.98;99248.92;1649251;87;26568;-57
2022/06/03 05:18:20;;;;;;;9.35;6.47;;;;;;;15.62;61.09;99241.92;1649624;87;25731;-58
2022/06/03 05:21:06;;;;;;;14.00;5.75;;;;;;;15.51;61.13;99248.95;1649108;87;27422;-59
2022/06/03 05:23:46;;;;;;;7.85;5.78;;;;;;;15.66;61.46;99245.63;1648833;87;25523;-57
2022/06/03 05:26:33;;;;;;;6.65;5.65;;;;;;;15.92;61.47;99252.16;1649461;87;25823;-59
2022/06/03 05:29:25;;;;;;;7.75;5.10;;;;;;;16.08;60.93;99255.72;1682104;84;25643;-60
2022/06/03 05:32:37;;;;;;;6.67;5.47;;;;;;;16.19;60.46;99248.66;1704103;84;25483;-58
2022/06/03 05:35:43;;;;;;;6.45;5.03;;;;;;;16.33;60.48;99251.71;1754517;81;27437;-58
2022/06/03 05:38:40;;;;;;;6.15;5.17;;;;;;;16.63;60.12;99243.30;1755962;81;25473;-59
2022/06/03 05:44:37;;;;;;;6.03;4.40;;;;;;;16.89;58.41;99243.61;1755739;81;25643;-61
2022/06/03 05:47:15;;;;;;;4.92;4.12;;;;;;;17.09;58.05;99239.20;1755583;81;25811;-63
2022/06/03 05:50:04;;;;;;;5.65;3.60;;;;;;;17.21;57.86;99244.53;1775081;80;27421;-60
2022/06/03 05:52:45;;;;;;;5.30;3.55;;;;;;;17.21;56.67;99243.14;1761015;81;25575;-60
2022/06/03 05:56:01;;;;;;;4.12;3.72;;;;;;;17.22;57.00;99246.14;1771137;80;25763;-62
2022/06/03 05:59:01;;;;;;;6.75;3.90;;;;;;;17.28;56.49;99242.81;1792057;80;25740;-60
2022/06/03 06:02:08;;;;;;;3.40;3.10;;;;;;;17.35;56.56;99247.77;1792499;80;25645;-58
2022/06/03 06:05:00;;;;;;;7.50;3.67;;;;;;;17.54;55.83;99247.21;1791900;80;27638;-57
2022/06/03 06:07:41;;;;;;;4.47;3.40;;;;;;;17.67;55.68;99247.17;1789001;79;25396;-61
2022/06/03 06:10:30;;;;;;;4.72;3.02;;;;;;;17.72;54.32;99249.73;1788378;80;25419;-59
2022/06/03 06:13:21;;;;;;;5.43;3.43;;;;;;;17.74;55.29;99248.00;1788736;80;25755;-59
2022/06/03 06:16:07;;;;;;;4.75;3.52;;;;;;;17.90;54.80;99251.67;1788441;80;25590;-60
2022/06/03 06:18:50;;;;;;;7.03;3.50;;;;;;;18.18;54.64;99241.25;1788384;80;26058;-59
2022/06/03 06:21:53;;;;;;;2.72;2.52;;;;;;;18.33;52.95;99238.09;1788281;80;25694;-58
2022/06/03 06:25:07;;;;;;;5.47;3.15;;;;;;;18.48;52.48;99235.92;1788311;80;25581;-60
2022/06/03 06:28:00;;;;;;;2.75;2.50;;;;;;;18.45;52.52;99234.45;1788616;80;25765;-59
2022/06/03 06:31:03;;;;;;;4.03;3.00;;;;;;;18.54;52.24;99231.73;1788282;80;25416;-59
2022/06/03 06:34:14;;;;;;;3.72;3.00;;;;;;;18.61;52.59;99225.59;1788250;80;27423;-59
2022/06/03 06:37:27;;;;;;;3.62;2.80;;;;;;;18.73;51.06;99227.49;1788319;80;25605;-58
2022/06/03 06:40:17;;;;;;;4.35;3.10;;;;;;;18.81;51.04;99232.09;1789027;80;25597;-56
2022/06/03 06:43:00;;;;;;;3.87;2.67;;;;;;;18.98;50.26;99228.75;1788560;80;25691;-57
2022/06/03 06:45:41;;;;;;;5.65;3.15;;;;;;;19.26;50.40;99229.27;1786447;80;25407;-57
2022/06/03 06:48:13;;;;;;;;;;;;;;;19.56;51.12;99230.77;1789501;80;27538;-56
2022/06/03 06:50:56;;;;;;;3.52;2.25;;;;;;;19.81;49.09;99228.56;1788562;80;25415;-58
2022/06/03 06:53:37;;;;;;;4.20;2.95;;;;;;;19.92;48.42;99232.19;1788690;80;25695;-62
2022/06/03 06:56:28;;;;;;;;;;;;;;;20.05;48.41;99235.67;1791735;80;25687;-62
2022/06/03 06:58:58;;;;;;;3.45;2.65;;;;;;;20.24;48.34;99228.52;1721557;83;25484;-62
2022/06/03 07:01:42;;;;;;;;;;;;;;;20.20;47.10;99218.69;1723335;83;27454;-61
2022/06/03 07:04:12;;;;;;;3.10;2.70;;;;;;;20.20;47.53;99225.64;1721462;83;25776;-62
2022/06/03 07:10:39;;;;;;;2.95;2.65;;;;;;;20.58;45.97;99212.08;1693335;84;25544;-62
2022/06/03 07:13:14;;;;;;;3.75;2.67;;;;;;;20.71;45.89;99220.27;1690501;84;25689;-62
2022/06/03 07:16:14;;;;;;;3.72;2.75;;;;;;;21.02;45.78;99222.66;1691159;84;27454;-61
2022/06/03 07:22:31;;;;;;;2.90;2.70;;;;;;;21.28;46.59;99212.73;1690703;84;25442;-58
2022/06/03 07:25:27;;;;;;;4.78;2.87;;;;;;;21.53;45.61;99212.34;1690713;84;26739;-59
2022/06/03 07:28:08;;;;;;;3.25;2.65;;;;;;;21.71;45.50;99202.03;1690619;84;25874;-59
2022/06/03 07:30:45;;;;;;;3.77;2.80;;;;;;;22.11;44.72;99205.39;1691006;84;27417;-61
2022/06/03 07:33:32;;;;;;;4.62;3.00;;;;;;;22.40;43.42;99200.16;1689752;84;25736;-58
2022/06/03 07:36:13;;;;;;;127.72;106.78;;;;;;;22.51;45.02;99201.67;1714688;80;25704;-57
2022/06/03 07:38:51;;;;;;;23.92;19.35;;;;;;;22.69;42.96;99194.30;1827091;77;26426;-56
2022/06/03 07:41:31;;;;;;;3.95;3.30;;;;;;;22.80;43.45;99199.21;1824872;78;25748;-59
2022/06/03 07:44:18;;;;;;;3.10;2.80;;;;;;;23.14;41.69;99194.91;1825426;78;27450;-57
2022/06/03 07:47:00;;;;;;;2.87;2.42;;;;;;;22.99;40.84;99188.40;1826235;78;25705;-57
2022/06/03 07:49:25;;;;;;;5.92;5.35;;;;;;;23.08;41.13;99190.08;1824873;78;25701;-57
2022/06/03 07:51:56;;;;;;;3.25;2.60;;;;;;;23.24;41.31;99189.80;1825646;78;25777;-57
2022/06/03 07:54:27;;;;;;;2.47;2.27;;;;;;;23.29;40.38;99187.44;1815967;78;25740;-58
2022/06/03 07:57:07;;;;;;;4.78;2.62;;;;;;;23.49;41.55;99190.00;1800515;79;27457;-56
2022/06/03 07:59:40;;;;;;;3.40;2.40;;;;;;;23.64;40.61;99190.11;1801147;79;25804;-58
2022/06/03 08:02:16;;;;;;;4.37;3.05;;;;;;;23.97;39.46;99189.68;1801202;79;25728;-57
2022/06/03 08:04:46;;;;;;;4.65;2.85;;;;;;;23.93;39.45;99195.87;1800709;79;25716;-58
2022/06/03 08:13:07;;;;;;;2.02;1.92;;;;;;;24.48;36.63;99186.30;1806310;79;25645;-58
2022/06/03 08:15:38;;;;;;;2.60;2.20;;;;;;;24.31;37.44;99181.65;1806827;79;25605;-57
2022/06/03 08:18:08;;;;;;;4.37;2.10;;;;;;;24.37;35.43;99187.66;1806308;79;25861;-59
2022/06/03 08:20:55;;;;;;;4.75;4.35;;;;;;;24.44;36.60;99193.31;1806767;79;25734;-57
2022/06/03 08:23:24;;;;;;;2.08;1.90;;;;;;;24.79;36.24;99179.17;1805413;79;27778;-57
2022/06/03 08:25:55;;;;;;;2.65;1.92;;;;;;;25.15;35.27;99193.02;1806732;79;25736;-57
2022/06/03 08:28:25;;;;;;;3.33;1.77;;;;;;;25.17;34.92;99184.42;1806803;79;25762;-58
2022/06/03 08:30:55;;;;;;;3.02;2.02;;;;;;;25.24;33.69;99182.20;1806782;79;25727;-62
2022/06/03 08:33:36;;;;;;;3.35;1.77;;;;;;;25.26;34.50;99174.78;1806868;79;25640;-62
2022/06/03 08:36:03;;;;;;;3.40;1.70;;;;;;;25.48;33.29;99176.98;1800868;79;27472;-58
2022/06/03 08:38:40;;;;;;;2.20;2.00;;;;;;;25.43;33.36;99175.38;1805992;79;25844;-64
2022/06/03 08:41:31;;;;;;;1.60;1.50;;;;;;;25.39;32.15;99182.20;1806400;79;25712;-62
2022/06/03 08:44:24;;;;;;;2.33;1.70;;;;;;;25.50;31.63;99170.97;1807819;78;25910;-64
2022/06/03 08:47:12;;;;;;;2.25;1.90;;;;;;;25.76;32.38;99176.73;1812578;77;25718;-58
2022/06/03 08:49:57;;;;;;;2.45;1.70;;;;;;;25.85;32.48;99181.94;1819496;78;27844;-58
2022/06/03 08:53:03;;;;;;;2.45;1.80;;;;;;;25.99;31.71;99169.83;1827189;78;25631;-57
2022/06/03 08:56:10;;;;;;;3.47;1.80;;;;;;;26.42;32.30;99166.64;1828174;77;25423;-59
2022/06/03 08:59:00;;;;;;;3.92;1.60;;;;;;;26.99;33.09;99161.06;1717359;83;25797;-58
2022/06/03 09:01:51;;;;;;;1.47;1.22;;;;;;;27.08;29.36;99171.23;1717354;81;25775;-60
2022/06/03 09:04:34;;;;;;;3.00;1.40;;;;;;;26.59;30.58;99174.00;1718476;83;27481;-63
2022/06/03 09:07:21;;;;;;;1.40;1.30;;;;;;;26.43;27.86;99181.69;1719058;83;25506;-63
2022/06/03 09:10:24;;;;;;;3.98;1.47;;;;;;;26.61;29.86;99169.56;1718498;83;25522;-62
2022/06/03 09:13:13;;;;;;;1.75;1.65;;;;;;;26.56;28.38;99165.77;1719066;83;25808;-63
2022/06/03 09:15:45;;;;;;;1.37;1.25;;;;;;;26.48;29.11;99164.23;1718918;83;25730;-62
2022/06/03 09:18:29;;;;;;;5.67;1.85;;;;;;;26.91;28.73;99158.29;1695414;83;27384;-60
2022/06/03 09:21:03;;;;;;;2.22;1.80;;;;;;;27.17;28.07;99164.53;1719216;83;25779;-62
2022/06/03 09:23:38;;;;;;;2.08;1.45;;;;;;;27.15;27.32;99171.80;1719793;83;25776;-57
2022/06/03 09:26:05;;;;;;;1.92;1.50;;;;;;;27.21;27.12;99158.08;1719022;83;27851;-61
2022/06/03 09:28:35;;;;;;;2.67;1.55;;;;;;;27.42;27.32;99171.95;1719279;83;25490;-59
2022/06/03 09:31:09;;;;;;;3.00;1.60;;;;;;;27.51;26.04;99160.79;1719050;83;27439;-58
2022/06/03 09:33:38;;;;;;;4.33;1.50;;;;;;;27.70;27.65;99158.62;1719035;83;25607;-59
2022/06/03 09:36:13;;;;;;;1.52;1.30;;;;;;;28.26;29.36;99161.15;1777482;79;25699;-58
2022/06/03 09:38:54;;;;;;;2.12;1.50;;;;;;;28.73;27.13;99163.14;1794448;79;25583;-61
2022/06/03 09:41:25;;;;;;;3.17;1.57;;;;;;;28.79;26.23;99164.25;1794518;79;25613;-58
2022/06/03 09:43:54;;;;;;;2.30;1.50;;;;;;;28.59;26.91;99152.88;1795716;79;27415;-60
2022/06/03 09:46:25;;;;;;;1.20;1.10;;;;;;;28.89;25.67;99147.77;1795671;79;25748;-63
2022/06/03 09:48:52;;;;;;;1.40;1.00;;;;;;;28.86;25.21;99150.03;1795792;79;25406;-64
2022/06/03 09:51:55;;;;;;;2.10;1.50;;;;;;;29.00;22.40;99149.63;1795404;79;25724;-63
2022/06/03 09:53:54;;;;;;;1.70;1.57;;;;;;;29.16;25.07;99144.74;1790695;79;25413;-63
2022/06/03 09:56:30;;;;;;;4.50;1.30;;;;;;;29.53;27.41;99149.12;1795786;79;27476;-63
2022/06/03 09:59:01;;;;;;;1.60;1.50;;;;;;;29.77;24.34;99150.49;1794987;79;25619;-63
2022/06/03 10:01:29;;;;;;;3.37;3.08;;;;;;;29.34;25.55;99144.41;1795680;79;25473;-61
2022/06/03 10:04:04;;;;;;;1.35;1.25;;;;;;;29.18;25.62;99143.08;1795673;79;25849;-64
2022/06/03 10:06:43;;;;;;;1.40;1.30;;;;;;;29.46;25.00;99147.82;1795962;79;25615;-61
2022/06/03 10:18:01;;;;;;;2.22;1.35;;;;;;;30.76;23.73;99131.58;1761143;81;25704;-58
2022/06/03 10:20:28;;;;;;;2.30;2.10;;;;;;;30.82;24.26;99140.35;1761672;81;25532;-59
2022/06/03 10:22:55;;;;;;;1.40;1.30;;;;;;;31.03;24.71;99139.66;1761181;81;27637;-59
2022/06/03 10:25:26;;;;;;;2.70;2.40;;;;;;;30.68;24.46;99132.98;1761269;81;25445;-58
2022/06/03 10:27:52;;;;;;;1.98;1.40;;;;;;;30.92;24.11;99130.02;1761306;81;25521;-59
2022/06/03 10:30:28;;;;;;;1.50;1.30;;;;;;;30.89;23.33;99126.66;1761548;81;26558;-61
2022/06/03 10:32:55;;;;;;;1.85;1.42;;;;;;;30.45;23.53;99123.41;1761492;81;25846;-60
2022/06/03 10:35:34;;;;;;;2.02;1.45;;;;;;;30.62;24.32;99134.77;1761364;81;27432;-61
2022/06/03 10:38:03;;;;;;;2.02;1.35;;;;;;;30.71;23.91;99126.44;1760390;81;25469;-60
2022/06/03 10:40:32;;;;;;;1.45;1.35;;;;;;;30.53;24.09;99130.51;1761142;81;25742;-61
2022/06/03 10:43:02;;;;;;;4.00;1.77;;;;;;;30.80;24.83;99128.70;1761782;81;26347;-62
2022/06/03 10:45:33;;;;;;;1.70;1.57;;;;;;;30.83;23.83;99117.92;1767236;80;25486;-61
2022/06/03 10:48:00;;;;;;;1.80;1.35;;;;;;;30.91;23.62;99116.48;1788971;79;27432;-59
2022/06/03 10:50:38;;;;;;;3.20;1.42;;;;;;;31.34;23.20;99112.98;1789488;80;25696;-60
2022/06/03 11:02:14;;;;;;;2.37;1.40;;;;;;;31.71;22.85;99116.41;1789789;80;25636;-59
2022/06/03 11:04:40;;;;;;;1.50;1.40;;;;;;;32.00;23.63;99114.17;1789548;80;27191;-59
2022/06/03 11:07:32;;;;;;;2.30;1.40;;;;;;;32.55;22.15;99112.52;1789984;80;25609;-58
2022/06/03 11:10:09;;;;;;;3.60;1.52;;;;;;;32.49;24.81;99113.72;1789634;80;25733;-58
2022/06/03 11:12:37;;;;;;;1.75;1.50;;;;;;;32.65;23.40;99114.84;1777826;79;25719;-62
2022/06/03 11:15:25;;;;;;;2.02;1.30;;;;;;;33.02;22.84;99110.17;1775497;80;27465;-59
2022/06/03 11:17:52;;;;;;;3.47;3.17;;;;;;;33.26;23.49;99113.42;1775673;80;25788;-62
2022/06/03 11:20:36;;;;;;;2.72;1.67;;;;;;;33.02;21.75;99115.23;1775442;80;25455;-62
2022/06/03 11:23:07;;;;;;;2.12;1.60;;;;;;;32.35;22.15;99100.75;1774264;80;26042;-63
2022/06/03 11:25:34;;;;;;;;;;;;;;;32.11;23.16;99103.93;1777727;80;25608;-61
2022/06/03 11:28:11;;;;;;;2.12;1.60;;;;;;;31.84;22.29;99104.31;1775713;80;27562;-61
2022/06/03 11:30:48;;;;;;;1.62;1.52;;;;;;;31.83;22.60;99097.84;1772904;80;25738;-61
2022/06/03 11:33:44;;;;;;;2.60;1.30;;;;;;;32.21;23.70;99095.55;1775411;80;25422;-59
2022/06/03 11:36:28;;;;;;;1.40;1.30;;;;;;;32.80;22.42;99094.68;1775649;80;25759;-60
2022/06/03 11:39:20;;;;;;;4.00;1.60;;;;;;;33.11;23.82;99088.20;1775302;80;25428;-59
2022/06/03 11:41:52;;;;;;;1.30;1.20;;;;;;;33.23;22.15;99080.88;1774226;80;29559;-60
2022/06/03 11:44:36;;;;;;;2.20;1.72;;;;;;;32.47;21.93;99078.53;1774535;80;25446;-57
2022/06/03 11:47:20;;;;;;;2.15;1.50;;;;;;;32.10;22.81;99076.04;1775201;80;25656;-58
2022/06/03 11:49:46;;;;;;;2.05;1.30;;;;;;;32.36;22.40;99066.92;1775521;80;25824;-61
2022/06/03 11:52:14;;;;;;;1.92;1.40;;;;;;;32.19;21.99;99064.82;1775598;80;25602;-58
2022/06/03 11:54:41;;;;;;;1.62;1.47;;;;;;;32.17;22.60;99063.86;1747118;80;27887;-62
2022/06/03 11:57:08;;;;;;;1.60;1.30;;;;;;;32.43;21.46;99058.17;1775135;80;25573;-61
2022/06/03 12:00:06;;;;;;;1.60;1.27;;;;;;;32.58;22.17;99050.62;1775505;80;25663;-62
2022/06/03 12:02:38;;;;;;;4.12;1.50;;;;;;;33.09;22.97;99040.41;1775407;80;25733;-62
2022/06/03 12:05:16;;;;;;;1.90;1.60;;;;;;;33.84;21.91;99044.41;1775396;80;25435;-61
2022/06/03 12:08:00;;;;;;;2.95;1.47;;;;;;;33.58;21.29;99041.70;1772324;80;27775;-61
2022/06/03 12:10:47;;;;;;;2.47;1.40;;;;;;;33.13;21.50;99037.44;1755864;80;25628;-61
2022/06/03 12:13:30;;;;;;;1.82;1.60;;;;;;;32.70;22.28;99030.59;1788894;79;25653;-62
2022/06/03 12:16:02;;;;;;;3.80;1.47;;;;;;;33.03;22.22;99027.40;1789455;80;26555;-63
2022/06/03 12:18:37;;;;;;;1.32;1.22;;;;;;;33.54;21.99;99023.36;1790149;80;25442;-62
2022/06/03 12:21:33;;;;;;;1.47;1.30;;;;;;;33.86;21.62;99014.86;1789693;80;27421;-60
2022/06/03 12:24:21;;;;;;;2.12;1.25;;;;;;;33.96;21.22;99012.87;1789441;80;25615;-62
2022/06/03 12:26:49;;;;;;;2.05;1.50;;;;;;;33.97;21.33;99015.24;1789303;80;25617;-60
2022/06/03 12:29:22;;;;;;;2.33;1.50;;;;;;;33.88;21.42;99017.39;1790082;80;25605;-57
2022/06/03 12:31:49;;;;;;;1.30;1.20;;;;;;;34.09;20.90;99009.90;1789321;80;25639;-57
2022/06/03 12:34:26;;;;;;;1.98;1.30;;;;;;;34.64;19.63;99006.42;1789823;80;27394;-58
2022/06/03 12:37:00;;;;;;;1.30;1.20;;;;;;;34.87;19.94;99004.88;1789740;80;25619;-57
2022/06/03 12:39:34;;;;;;;2.90;1.15;;;;;;;34.86;19.67;99002.69;1786884;80;25629;-63
2022/06/03 12:42:16;;;;;;;2.35;1.27;;;;;;;34.98;19.94;99003.78;1789876;80;25618;-62
2022/06/03 12:44:50;;;;;;;2.20;1.40;;;;;;;35.30;19.80;98990.80;1782706;80;25617;-63
2022/06/03 12:47:38;;;;;;;1.87;1.47;;;;;;;35.40;19.82;98991.58;1789914;80;27443;-62
2022/06/03 12:50:09;;;;;;;1.50;1.30;;;;;;;35.47;20.28;98996.94;1789567;80;25438;-63
2022/06/03 12:52:41;;;;;;;4.35;1.30;;;;;;;35.19;19.14;98996.20;1789979;80;25655;-58
2022/06/03 12:55:17;;;;;;;3.67;1.27;;;;;;;34.79;19.88;98983.05;1790225;80;26504;-59
2022/06/03 12:57:56;;;;;;;1.70;1.10;;;;;;;34.32;19.95;98982.19;1790359;80;25572;-58
2022/06/03 13:00:36;;;;;;;1.52;1.27;;;;;;;33.93;20.09;98971.94;1790148;80;28181;-57
2022/06/03 13:03:07;;;;;;;1.40;1.30;;;;;;;33.39;20.27;98970.58;1790036;80;25462;-59
2022/06/03 13:05:58;;;;;;;2.02;1.30;;;;;;;33.02;20.81;98971.09;1790023;80;25641;-60
2022/06/03 13:09:34;;;;;;;2.10;1.15;;;;;;;32.74;20.94;98968.83;1789900;80;25730;-59
2022/06/03 13:11:24;;;;;;;1.85;1.20;;;;;;;33.29;20.80;98961.19;1786414;80;32993;-57
2022/06/03 13:14:02;;;;;;;1.30;1.20;;;;;;;33.83;21.31;98952.66;1789564;80;27873;-57
2022/06/03 13:16:37;;;;;;;1.85;1.20;;;;;;;33.73;20.98;98950.39;1790000;80;25612;-59
2022/06/03 13:19:25;;;;;;;1.57;1.45;;;;;;;33.67;20.48;98947.38;1789686;80;25600;-58
2022/06/03 13:22:07;;;;;;;1.87;1.35;;;;;;;33.90;20.56;98942.41;1789815;80;25575;-58
2022/06/03 13:24:39;;;;;;;1.80;1.70;;;;;;;33.69;20.97;98936.97;1789693;80;25478;-62
2022/06/03 13:27:24;;;;;;;1.72;1.20;;;;;;;33.61;20.98;98944.98;1790140;80;27641;-59
2022/06/03 13:29:56;;;;;;;2.12;1.47;;;;;;;33.97;21.16;98933.42;1789588;80;25607;-59
2022/06/03 13:32:43;;;;;;;1.80;1.22;;;;;;;34.56;20.15;98929.74;1790181;80;25493;-62
2022/06/03 13:35:21;;;;;;;1.10;1.00;;;;;;;34.80;20.83;98907.80;1778324;80;25810;-61